Time;durP1;ratioP1;P1;durP2;ratioP2;P2;SDS_P1;SDS_P2;PMS_P1;PMS_P2;Temp;Humidity;BMP_temperature;BMP_pressure;BME280_temperature;BME280_humidity;BME280_pressure;Samples;Min_cycle;Max_cycle;Signal;HPM_P1;HPM_P2
2023/05/12 00:01:32;;;;;;;20.10;9.27;;;;;;;;;;6192941;23;20017;-62
2023/05/12 00:03:58;;;;;;;21.15;10.57;;;;;;;;;;6245359;23;20475;-62
2023/05/12 00:06:25;;;;;;;23.27;9.88;;;;;;;;;;6245066;23;20023;-62
2023/05/12 00:08:51;;;;;;;24.85;10.70;;;;;;;;;;6245373;23;20380;-62
2023/05/12 00:11:17;;;;;;;20.77;10.30;;;;;;;;;;6245021;23;20016;-62
2023/05/12 00:13:43;;;;;;;19.33;9.20;;;;;;;;;;6244948;23;20016;-62
2023/05/12 00:16:09;;;;;;;21.23;9.98;;;;;;;;;;6217700;23;20125;-62
2023/05/12 00:18:35;;;;;;;22.25;10.60;;;;;;;;;;6217902;23;20024;-62
2023/05/12 00:21:01;;;;;;;21.75;10.15;;;;;;;;;;6245216;23;20020;-62
2023/05/12 00:23:27;;;;;;;21.50;9.88;;;;;;;;;;6218224;23;20524;-62
2023/05/12 00:25:53;;;;;;;17.60;9.88;;;;;;;;;;6245213;23;20055;-62
2023/05/12 00:28:19;;;;;;;16.70;8.63;;;;;;;;;;6245006;23;20020;-62
2023/05/12 00:30:45;;;;;;;16.65;8.90;;;;;;;;;;6217649;23;20135;-62
2023/05/12 00:33:11;;;;;;;17.05;8.50;;;;;;;;;;6245097;23;20448;-62
2023/05/12 00:35:37;;;;;;;15.90;7.97;;;;;;;;;;6244782;23;20016;-62
2023/05/12 00:38:03;;;;;;;16.52;8.10;;;;;;;;;;6218253;23;20047;-62
2023/05/12 00:40:30;;;;;;;18.02;8.18;;;;;;;;;;6244755;23;20070;-62
2023/05/12 00:42:56;;;;;;;16.17;7.93;;;;;;;;;;6244539;23;20474;-62
2023/05/12 00:45:22;;;;;;;15.05;7.45;;;;;;;;;;6244287;23;20039;-62
2023/05/12 00:47:49;;;;;;;17.08;7.07;;;;;;;;;;6244742;23;20024;-62
2023/05/12 00:50:15;;;;;;;14.63;7.00;;;;;;;;;;6244419;23;20020;-63
2023/05/12 00:52:41;;;;;;;12.77;5.82;;;;;;;;;;6218499;23;20024;-61
2023/05/12 00:55:07;;;;;;;15.02;7.47;;;;;;;;;;6244972;23;20095;-61
2023/05/12 00:57:33;;;;;;;12.20;6.63;;;;;;;;;;6244770;23;20070;-62
2023/05/12 01:00:00;;;;;;;12.02;6.65;;;;;;;;;;6244520;23;20051;-62
2023/05/12 01:02:26;;;;;;;13.05;6.10;;;;;;;;;;6244680;23;20160;-62
2023/05/12 01:04:52;;;;;;;13.02;6.65;;;;;;;;;;6245047;23;20061;-61
2023/05/12 01:07:20;;;;;;;14.85;6.95;;;;;;;;;;6244734;23;20020;-62
2023/05/12 01:09:46;;;;;;;14.15;6.85;;;;;;;;;;6245008;23;20020;-61
2023/05/12 01:12:12;;;;;;;12.50;5.65;;;;;;;;;;6217878;23;20023;-61
2023/05/12 01:14:38;;;;;;;13.32;6.43;;;;;;;;;;6244591;23;20023;-61
2023/05/12 01:17:08;;;;;;;12.98;5.72;;;;;;;;;;6244435;23;20020;-61
2023/05/12 01:19:48;;;;;;;13.07;6.30;;;;;;;;;;6244362;23;20055;-61
2023/05/12 01:22:15;;;;;;;15.32;6.97;;;;;;;;;;6244829;23;20020;-62
2023/05/12 01:24:46;;;;;;;15.07;7.35;;;;;;;;;;6245009;23;20099;-61
2023/05/12 01:27:13;;;;;;;15.60;7.28;;;;;;;;;;6245222;23;20016;-61
2023/05/12 01:29:39;;;;;;;18.58;8.05;;;;;;;;;;6244395;23;20017;-61
2023/05/12 01:32:05;;;;;;;16.77;9.05;;;;;;;;;;6244330;23;20024;-61
2023/05/12 01:34:31;;;;;;;26.90;10.30;;;;;;;;;;6244188;23;20023;-61
2023/05/12 01:36:57;;;;;;;22.48;9.68;;;;;;;;;;6244810;23;20020;-61
2023/05/12 01:39:23;;;;;;;27.35;11.88;;;;;;;;;;6217708;23;20099;-61
2023/05/12 01:41:49;;;;;;;28.77;12.95;;;;;;;;;;6244831;23;20396;-61
2023/05/12 01:44:16;;;;;;;34.13;14.15;;;;;;;;;;6244344;23;20016;-62
2023/05/12 01:46:42;;;;;;;30.67;14.15;;;;;;;;;;6244675;23;20111;-61
2023/05/12 01:49:08;;;;;;;35.10;14.18;;;;;;;;;;6244412;23;20091;-61
2023/05/12 01:51:34;;;;;;;38.58;15.05;;;;;;;;;;6244401;23;20023;-62
2023/05/12 01:54:00;;;;;;;36.92;15.90;;;;;;;;;;6244665;23;20038;-62
2023/05/12 01:56:27;;;;;;;44.92;18.02;;;;;;;;;;6192197;23;20024;-62
2023/05/12 01:58:53;;;;;;;44.50;17.52;;;;;;;;;;6244337;23;20027;-62
2023/05/12 02:01:19;;;;;;;44.45;18.95;;;;;;;;;;6245093;23;20024;-62
2023/05/12 02:03:45;;;;;;;41.70;18.23;;;;;;;;;;6246270;23;20013;-62
2023/05/12 02:06:11;;;;;;;44.90;19.42;;;;;;;;;;6246523;23;20020;-61
2023/05/12 02:08:37;;;;;;;49.67;18.67;;;;;;;;;;6246282;23;20020;-61
2023/05/12 02:11:07;;;;;;;45.05;19.52;;;;;;;;;;6246523;23;20022;-61
2023/05/12 02:13:33;;;;;;;54.65;20.50;;;;;;;;;;6245587;23;20444;-62
2023/05/12 02:15:59;;;;;;;49.55;19.45;;;;;;;;;;6219223;23;20433;-62
2023/05/12 02:18:25;;;;;;;49.40;19.80;;;;;;;;;;6218925;23;20109;-62
2023/05/12 02:20:52;;;;;;;61.20;22.38;;;;;;;;;;6246543;23;20024;-62
2023/05/12 02:23:18;;;;;;;55.35;22.00;;;;;;;;;;6246292;23;20016;-63
2023/05/12 02:25:45;;;;;;;53.83;22.45;;;;;;;;;;6245952;23;20024;-62
2023/05/12 02:28:11;;;;;;;62.88;22.77;;;;;;;;;;6246350;23;20384;-62
2023/05/12 02:30:37;;;;;;;51.53;22.20;;;;;;;;;;6245949;23;20027;-62
2023/05/12 02:33:06;;;;;;;54.78;24.10;;;;;;;;;;6219138;23;20020;-62
2023/05/12 02:35:32;;;;;;;54.60;22.55;;;;;;;;;;6245506;23;20165;-62
2023/05/12 02:37:58;;;;;;;59.75;25.40;;;;;;;;;;6219456;23;20097;-62
2023/05/12 02:40:24;;;;;;;57.83;22.65;;;;;;;;;;6245353;23;20020;-62
2023/05/12 02:42:50;;;;;;;67.30;24.23;;;;;;;;;;6246205;23;20052;-62
2023/05/12 02:45:16;;;;;;;62.97;24.48;;;;;;;;;;6219147;23;20066;-62
2023/05/12 02:47:42;;;;;;;61.08;24.33;;;;;;;;;;6219379;23;20020;-62
2023/05/12 02:50:09;;;;;;;61.30;24.35;;;;;;;;;;6245829;23;20026;-62
2023/05/12 02:52:35;;;;;;;71.35;23.67;;;;;;;;;;6219162;23;20059;-62
2023/05/12 02:55:01;;;;;;;67.35;25.20;;;;;;;;;;6245669;23;20012;-62
2023/05/12 02:57:32;;;;;;;64.75;25.55;;;;;;;;;;6219161;23;20055;-62
2023/05/12 02:59:58;;;;;;;69.97;27.73;;;;;;;;;;6246444;23;20020;-62
2023/05/12 03:02:24;;;;;;;71.53;26.00;;;;;;;;;;6245752;23;20016;-62
2023/05/12 03:04:50;;;;;;;63.58;25.13;;;;;;;;;;6245774;23;20054;-62
2023/05/12 03:07:16;;;;;;;67.28;24.98;;;;;;;;;;6245928;23;20341;-62
2023/05/12 03:09:42;;;;;;;77.18;27.50;;;;;;;;;;6218807;23;20016;-62
2023/05/12 03:12:08;;;;;;;77.80;26.65;;;;;;;;;;6245468;23;20452;-62
2023/05/12 03:14:35;;;;;;;73.53;27.27;;;;;;;;;;6218606;23;20020;-62
2023/05/12 03:17:01;;;;;;;71.45;27.02;;;;;;;;;;6245287;23;20555;-61
2023/05/12 03:19:27;;;;;;;82.97;28.65;;;;;;;;;;6245250;23;20024;-62
2023/05/12 03:21:53;;;;;;;81.95;26.58;;;;;;;;;;6245508;23;20020;-62
2023/05/12 03:24:19;;;;;;;79.53;27.42;;;;;;;;;;6245142;23;20020;-62
2023/05/12 03:26:45;;;;;;;73.75;25.80;;;;;;;;;;6245801;23;20369;-62
2023/05/12 03:29:11;;;;;;;77.60;27.35;;;;;;;;;;6245884;23;20369;-62
2023/05/12 03:31:37;;;;;;;79.30;27.45;;;;;;;;;;6245446;23;20122;-62
2023/05/12 03:34:03;;;;;;;76.45;27.73;;;;;;;;;;6245274;23;20012;-62
2023/05/12 03:36:29;;;;;;;80.75;28.70;;;;;;;;;;6245371;23;20471;-62
2023/05/12 03:38:55;;;;;;;78.65;28.80;;;;;;;;;;6193479;23;20341;-62
2023/05/12 03:41:21;;;;;;;81.90;28.83;;;;;;;;;;6245446;23;20027;-62
2023/05/12 03:43:47;;;;;;;75.40;28.20;;;;;;;;;;6245307;23;20027;-62
2023/05/12 03:46:13;;;;;;;87.10;28.50;;;;;;;;;;6245411;23;20016;-62
2023/05/12 03:48:40;;;;;;;98.53;30.73;;;;;;;;;;6218752;23;20143;-62
2023/05/12 03:51:06;;;;;;;77.68;27.50;;;;;;;;;;6245510;23;20016;-61
2023/05/12 03:53:32;;;;;;;76.63;27.38;;;;;;;;;;6244850;23;20020;-62
2023/05/12 03:56:03;;;;;;;82.18;29.55;;;;;;;;;;6245593;23;20023;-62
2023/05/12 03:58:29;;;;;;;85.93;29.40;;;;;;;;;;6244950;23;20457;-62
2023/05/12 04:00:56;;;;;;;92.45;32.20;;;;;;;;;;6193547;23;20024;-62
2023/05/12 04:03:22;;;;;;;93.13;32.53;;;;;;;;;;6245156;23;20016;-62
2023/05/12 04:05:48;;;;;;;100.18;31.38;;;;;;;;;;6245480;23;20019;-62
2023/05/12 04:08:14;;;;;;;96.25;31.98;;;;;;;;;;6244994;23;20019;-62
2023/05/12 04:10:40;;;;;;;100.70;31.30;;;;;;;;;;6245436;23;20020;-62
2023/05/12 04:13:07;;;;;;;86.88;30.45;;;;;;;;;;6244957;23;20027;-62
2023/05/12 04:15:36;;;;;;;89.85;30.65;;;;;;;;;;6244724;23;20067;-62
2023/05/12 04:18:05;;;;;;;98.07;32.40;;;;;;;;;;6245445;23;20024;-62
2023/05/12 04:20:31;;;;;;;89.03;30.98;;;;;;;;;;6245058;23;20016;-62
2023/05/12 04:22:57;;;;;;;91.53;31.85;;;;;;;;;;6244951;23;20494;-62
2023/05/12 04:25:23;;;;;;;103.75;32.92;;;;;;;;;;6244709;23;20055;-62
2023/05/12 04:27:49;;;;;;;96.88;32.35;;;;;;;;;;6244926;23;20027;-62
2023/05/12 04:30:15;;;;;;;93.68;33.70;;;;;;;;;;6217703;23;20508;-62
2023/05/12 04:32:41;;;;;;;90.72;31.08;;;;;;;;;;6244809;23;20020;-62
2023/05/12 04:35:08;;;;;;;99.13;33.55;;;;;;;;;;6244987;23;20012;-62
2023/05/12 04:37:34;;;;;;;96.70;32.40;;;;;;;;;;6244466;23;20016;-62
2023/05/12 04:40:00;;;;;;;96.85;32.70;;;;;;;;;;6244825;23;20101;-62
2023/05/12 04:42:26;;;;;;;101.78;32.88;;;;;;;;;;6244480;23;20456;-62
2023/05/12 04:44:59;;;;;;;92.75;32.58;;;12.10;99.90;;;;;;6239758;22;20027;-63
2023/05/12 04:47:25;;;;;;;91.05;30.98;;;;;;;;;;6236563;22;20020;-62
2023/05/12 04:49:51;;;;;;;92.57;32.72;;;;;;;;;;6244649;23;20020;-63
2023/05/12 04:52:17;;;;;;;100.10;32.30;;;;;;;;;;6244527;23;20103;-62
2023/05/12 04:54:43;;;;;;;91.72;31.42;;;;;;;;;;6244779;23;20099;-62
2023/05/12 04:57:09;;;;;;;85.28;31.45;;;;;;;;;;6244902;23;20460;-62
2023/05/12 04:59:35;;;;;;;90.65;32.58;;;;;;;;;;6244748;23;20114;-62
2023/05/12 05:02:28;;;;;;;92.60;31.25;;;12.20;99.90;;;;;;6237332;22;20008;-62
2023/05/12 05:04:54;;;;;;;85.43;31.33;;;;;;;;;;6230625;22;20020;-62
2023/05/12 05:07:20;;;;;;;81.70;32.60;;;;;;;;;;6244507;23;20020;-62
2023/05/12 05:09:46;;;;;;;79.28;30.13;;;;;;;;;;6244479;23;20103;-62
2023/05/12 05:12:12;;;;;;;79.53;29.98;;;;;;;;;;6244742;23;20020;-62
2023/05/12 05:14:38;;;;;;;78.45;30.65;;;;;;;;;;6244739;23;20023;-62
2023/05/12 05:17:06;;;;;;;75.97;29.08;;;;;;;;;;6244898;23;20055;-62
2023/05/12 05:19:32;;;;;;;83.80;31.30;;;;;;;;;;6244132;23;20548;-63
2023/05/12 05:21:58;;;;;;;74.07;29.45;;;;;;;;;;6244417;23;20017;-63
2023/05/12 05:24:25;;;;;;;67.63;28.40;;;;;;;;;;6244185;23;20062;-63
2023/05/12 05:26:51;;;;;;;74.20;28.63;;;;;;;;;;6218014;23;20046;-62
2023/05/12 05:29:17;;;;;;;71.30;28.25;;;;;;;;;;6244715;23;20024;-63
2023/05/12 05:31:43;;;;;;;76.80;28.58;;;;;;;;;;6244620;23;20016;-62
2023/05/12 05:34:09;;;;;;;68.25;28.85;;;;;;;;;;6217381;23;20437;-62
2023/05/12 05:36:35;;;;;;;61.97;28.55;;;;;;;;;;6218258;23;20024;-62
2023/05/12 05:39:01;;;;;;;63.33;26.85;;;;;;;;;;6246884;23;20023;-62
2023/05/12 05:41:27;;;;;;;60.17;26.63;;;;;;;;;;6246525;23;20094;-63
2023/05/12 05:43:53;;;;;;;61.35;27.67;;;;;;;;;;6246523;23;20047;-62
2023/05/12 05:46:19;;;;;;;64.32;27.45;;;;;;;;;;6246495;23;20039;-63
2023/05/12 05:48:45;;;;;;;68.03;29.10;;;;;;;;;;6246373;23;20138;-63
2023/05/12 05:51:11;;;;;;;62.42;28.05;;;;;;;;;;6246501;23;20067;-62
2023/05/12 05:53:37;;;;;;;57.92;26.73;;;;;;;;;;6246418;23;20023;-63
2023/05/12 05:56:03;;;;;;;55.95;25.65;;;;;;;;;;6219565;23;20028;-62
2023/05/12 05:58:29;;;;;;;59.90;26.13;;;;;;;;;;6246327;23;20020;-63
2023/05/12 06:00:55;;;;;;;57.38;24.35;;;;;;;;;;6219874;23;20020;-63
2023/05/12 06:03:22;;;;;;;54.83;26.17;;;;;;;;;;6245578;23;20063;-63
2023/05/12 06:05:49;;;;;;;57.60;24.77;;;;;;;;;;6219523;23;20032;-63
2023/05/12 06:08:15;;;;;;;52.80;25.48;;;;;;;;;;6246181;23;20020;-63
2023/05/12 06:10:41;;;;;;;50.00;24.90;;;;;;;;;;6246234;23;20020;-63
2023/05/12 06:13:07;;;;;;;56.33;27.98;;;;;;;;;;6246498;23;20051;-63
2023/05/12 06:15:33;;;;;;;52.42;24.90;;;;;;;;;;6245777;23;20098;-63
2023/05/12 06:17:59;;;;;;;52.80;25.90;;;;;;;;;;6246179;23;20017;-63
2023/05/12 06:20:25;;;;;;;50.63;24.73;;;;;;;;;;6245419;23;20115;-63
2023/05/12 06:22:51;;;;;;;47.10;24.05;;;;;;;;;;6245986;23;20020;-63
2023/05/12 06:25:17;;;;;;;48.92;23.63;;;;;;;;;;6246230;23;20333;-63
2023/05/12 06:27:43;;;;;;;46.17;24.02;;;;;;;;;;6246426;23;20026;-62
2023/05/12 06:30:10;;;;;;;43.58;22.83;;;;;;;;;;6246597;23;20091;-63
2023/05/12 06:32:36;;;;;;;45.70;25.10;;;;;;;;;;6245661;23;20157;-63
2023/05/12 06:35:02;;;;;;;43.55;23.45;;;;;;;;;;6245807;23;20020;-63
2023/05/12 06:37:28;;;;;;;47.40;23.92;;;;;;;;;;6246003;23;20031;-63
2023/05/12 06:39:54;;;;;;;49.88;23.63;;;;;;;;;;6246351;23;20078;-63
2023/05/12 06:42:20;;;;;;;46.63;24.38;;;;;;;;;;6246080;23;20016;-63
2023/05/12 06:44:46;;;;;;;48.25;23.92;;;;;;;;;;6219554;23;20016;-63
2023/05/12 06:47:13;;;;;;;46.15;23.05;;;;;;;;;;6244975;23;20020;-62
2023/05/12 06:49:39;;;;;;;44.95;22.55;;;;;;;;;;6246102;23;20066;-63
2023/05/12 06:52:05;;;;;;;52.08;24.85;;;;;;;;;;6245726;23;20466;-63
2023/05/12 06:54:31;;;;;;;45.30;23.67;;;;;;;;;;6218893;23;20028;-63
2023/05/12 06:56:57;;;;;;;46.13;22.92;;;;;;;;;;6218993;23;20024;-62
2023/05/12 06:59:23;;;;;;;53.67;25.30;;;;;;;;;;6245593;23;20479;-63
2023/05/12 07:01:49;;;;;;;46.20;24.30;;;;;;;;;;6245696;23;20069;-62
2023/05/12 07:04:15;;;;;;;46.38;23.52;;;;;;;;;;6218659;23;20016;-63
2023/05/12 07:06:41;;;;;;;45.33;23.48;;;;;;;;;;6219405;23;20111;-62
2023/05/12 07:09:07;;;;;;;51.95;25.25;;;;;;;;;;6246275;23;20302;-62
2023/05/12 07:11:33;;;;;;;49.67;24.08;;;;;;;;;;6245333;23;20613;-62
2023/05/12 07:13:59;;;;;;;44.17;21.98;;;;;;;;;;6245915;23;20016;-63
2023/05/12 07:16:25;;;;;;;48.30;24.17;;;;;;;;;;6245364;23;20048;-62
2023/05/12 07:18:51;;;;;;;45.75;23.40;;;;;;;;;;6245922;23;20016;-62
2023/05/12 07:21:17;;;;;;;44.90;23.92;;;;;;;;;;6245664;23;20016;-63
2023/05/12 07:23:44;;;;;;;43.38;22.35;;;;;;;;;;6219164;23;20020;-63
2023/05/12 07:26:10;;;;;;;51.28;25.05;;;;;;;;;;6246057;23;20016;-63
2023/05/12 07:28:36;;;;;;;49.85;23.60;;;;;;;;;;6245605;23;20046;-63
2023/05/12 07:31:06;;;;;;;50.40;24.50;;;;;;;;;;6218281;23;20021;-63
2023/05/12 07:33:33;;;;;;;50.40;24.07;;;;;;;;;;6245490;23;20012;-63
2023/05/12 07:35:59;;;;;;;48.95;25.05;;;;;;;;;;6245729;23;20235;-63
2023/05/12 07:38:25;;;;;;;43.17;22.58;;;;;;;;;;6245680;23;20099;-62
2023/05/12 07:40:51;;;;;;;44.20;22.83;;;;;;;;;;6218697;23;20027;-63
2023/05/12 07:43:18;;;;;;;53.65;25.70;;;;;;;;;;6245371;23;20016;-63
2023/05/12 07:45:45;;;;;;;47.63;24.95;;;;;;;;;;6245295;23;20020;-62
2023/05/12 07:48:11;;;;;;;44.03;22.98;;;;;;;;;;6245537;23;20020;-62
2023/05/12 07:50:37;;;;;;;51.97;24.02;;;;;;;;;;6244620;23;20020;-62
2023/05/12 07:53:04;;;;;;;47.13;24.85;;;;;;;;;;6218770;23;20027;-62
2023/05/12 07:55:32;;;;;;;49.72;25.08;;;;;;;;;;6245300;23;20031;-63
2023/05/12 07:58:04;;;;;;;50.13;24.05;;;;;;;;;;6243562;23;20357;-63
2023/05/12 08:00:53;;;;;;;45.75;24.08;;;;;;;;;;6240415;23;20020;-62
2023/05/12 08:03:19;;;;;;;48.35;24.38;;;;;;;;;;6245466;23;20035;-62
2023/05/12 08:05:45;;;;;;;50.67;25.55;;;;;;;;;;6245138;23;20387;-62
2023/05/12 08:08:15;;;;;;;52.45;28.15;;;;;;;;;;6245395;23;20100;-62
2023/05/12 08:10:44;;;;;;;56.03;25.35;;;;;;;;;;6218562;23;20369;-62
2023/05/12 08:13:10;;;;;;;50.80;25.50;;;;;;;;;;6193506;23;20383;-62
2023/05/12 08:15:36;;;;;;;49.30;25.08;;;;;;;;;;6244585;23;20020;-62
2023/05/12 08:18:03;;;;;;;52.28;25.38;;;;;;;;;;6244938;23;20337;-62
2023/05/12 08:20:30;;;;;;;46.17;23.88;;;;;;;;;;6244793;23;20021;-62
2023/05/12 08:22:56;;;;;;;45.17;24.05;;;;;;;;;;6218448;23;20019;-62
2023/05/12 08:25:22;;;;;;;43.53;23.70;;;;;;;;;;6245023;23;20012;-62
2023/05/12 08:27:48;;;;;;;42.10;23.08;;;;;;;;;;6192575;23;20095;-63
2023/05/12 08:30:14;;;;;;;41.28;23.30;;;;;;;;;;6244361;23;20048;-63
2023/05/12 08:32:40;;;;;;;40.45;23.17;;;;;;;;;;6218197;23;20482;-63
2023/05/12 08:35:07;;;;;;;43.90;23.92;;;;;;;;;;6244973;23;20069;-62
2023/05/12 08:37:33;;;;;;;40.67;22.80;;;;;;;;;;6244933;23;20043;-62
2023/05/12 08:39:59;;;;;;;40.30;23.13;;;;;;;;;;6245168;23;20020;-62
2023/05/12 08:42:30;;;;;;;37.22;22.20;;;;;;;;;;6217560;23;20051;-62
2023/05/12 08:44:58;;;;;;;34.45;21.15;;;;;;;;;;6217841;23;20016;-62
2023/05/12 08:47:25;;;;;;;35.90;20.92;;;;;;;;;;6244555;23;20022;-63
2023/05/12 08:50:04;;;;;;;37.22;22.48;;;;;;;;;;6244765;23;20526;-63
2023/05/12 08:52:32;;;;;;;32.75;21.45;;;;;;;;;;6217389;23;20449;-63
2023/05/12 08:54:58;;;;;;;34.78;22.13;;;;;;;;;;6217831;23;20012;-62
2023/05/12 08:57:25;;;;;;;37.05;23.17;;;;;;;;;;6217127;23;20507;-63
2023/05/12 08:59:53;;;;;;;34.45;20.52;;;;;;;;;;6244553;23;20460;-62
2023/05/12 09:02:21;;;;;;;34.00;22.48;;;;;;;;;;6245115;23;20066;-62
2023/05/12 09:04:47;;;;;;;31.80;19.33;;;;;;;;;;6244825;23;20020;-62
2023/05/12 09:07:14;;;;;;;28.77;20.48;;;;;;;;;;6217803;23;20076;-62
2023/05/12 09:09:42;;;;;;;31.80;20.00;;;;;;;;;;6218089;23;20016;-62
2023/05/12 09:12:09;;;;;;;28.40;20.67;;;;;;;;;;6244129;23;20117;-62
2023/05/12 09:14:37;;;;;;;31.27;21.77;;;;;;;;;;6244459;23;20016;-62
2023/05/12 09:17:04;;;;;;;28.48;19.15;;;;;;;;;;6244499;23;20463;-62
2023/05/12 09:19:31;;;;;;;29.27;20.23;;;;;;;;;;6192857;23;20144;-62
2023/05/12 09:21:58;;;;;;;29.70;20.35;;;;;;;;;;6244648;23;20020;-62
2023/05/12 09:24:39;;;;;;;30.77;21.60;;;;;;;;;;6217856;23;20061;-63
2023/05/12 09:27:06;;;;;;;28.02;19.08;;;;;;;;;;6217829;23;20026;-62
2023/05/12 09:29:32;;;;;;;29.30;20.17;;;;;;;;;;6244659;23;20082;-62
2023/05/12 09:32:00;;;;;;;27.15;20.02;;;;;;;;;;6218026;23;20016;-62
2023/05/12 09:34:28;;;;;;;27.08;19.88;;;;;;;;;;6244432;23;20539;-62
2023/05/12 09:36:57;;;;;;;26.80;19.02;;;;;;;;;;6244606;23;20020;-62
2023/05/12 09:39:24;;;;;;;31.57;21.10;;;;;;;;;;6244634;23;20028;-62
2023/05/12 09:41:53;;;;;;;31.05;20.67;;;;;;;;;;6244405;23;20055;-62
2023/05/12 09:44:20;;;;;;;29.55;21.90;;;;;;;;;;6244574;23;20024;-63
2023/05/12 09:46:46;;;;;;;29.33;20.17;;;;;;;;;;6244753;23;20023;-63
2023/05/12 09:49:17;;;;;;;27.33;18.98;;;;;;;;;;6244705;23;20020;-62
2023/05/12 09:51:43;;;;;;;28.83;19.15;;;;;;;;;;6217417;23;20024;-62
2023/05/12 09:54:09;;;;;;;24.85;18.52;;;;;;;;;;6244653;23;20066;-62
2023/05/12 09:56:36;;;;;;;26.42;17.90;;;;;;;;;;6244223;23;20020;-63
2023/05/12 09:59:03;;;;;;;26.65;18.40;;;;;;;;;;6244899;23;20020;-62
2023/05/12 10:01:30;;;;;;;27.25;18.02;;;;;;;;;;6244547;23;20377;-63
2023/05/12 10:03:58;;;;;;;25.95;18.33;;;;;;;;;;6244293;23;20406;-62
2023/05/12 10:06:28;;;;;;;24.73;18.60;;;;;;;;;;6243970;23;20016;-63
2023/05/12 10:09:13;;;;;;;23.35;17.05;;;;;;;;;;6244414;23;20095;-62
2023/05/12 10:11:40;;;;;;;22.92;16.30;;;;;;;;;;6244081;23;20054;-63
2023/05/12 10:14:08;;;;;;;24.65;15.95;;;;;;;;;;6244639;23;20016;-63
2023/05/12 10:16:35;;;;;;;19.02;13.35;;;19.70;99.90;;;;;;6244356;23;20020;-62
2023/05/12 10:19:03;;;;;;;20.13;14.32;;;19.80;99.90;;;;;;6244705;23;20020;-63
2023/05/12 10:21:29;;;;;;;20.52;14.00;;;20.10;99.90;;;;;;6244284;23;20065;-62
2023/05/12 10:23:56;;;;;;;15.93;12.20;;;20.20;99.90;;;;;;6246007;23;20087;-63
2023/05/12 10:26:22;;;;;;;16.33;12.07;;;20.50;99.90;;;;;;6245429;23;20016;-63
2023/05/12 10:28:49;;;;;;;20.17;13.63;;;;;;;;;;6246509;23;20008;-63
2023/05/12 10:31:15;;;;;;;19.17;14.35;;;;;;;;;;6246301;23;20020;-63
2023/05/12 10:33:41;;;;;;;23.05;13.77;;;;;;;;;;6246465;23;20026;-63
2023/05/12 10:36:21;;;;;;;20.15;14.02;;;;;;;;;;6246556;23;20028;-63
2023/05/12 10:38:50;;;;;;;23.27;14.70;;;20.30;99.90;;;;;;6218980;23;20024;-63
2023/05/12 10:41:17;;;;;;;12.02;6.95;;;;;;;;;;6218817;23;20054;-63
2023/05/12 10:43:47;;;;;;;15.25;11.13;;;19.80;99.90;;;;;;6246410;23;20071;-63
2023/05/12 10:46:21;;;;;;;16.23;11.23;;;19.90;99.90;;;;;;6246026;23;20058;-63
2023/05/12 10:48:59;;;;;;;15.45;11.35;;;;;;;;;;6194331;23;20024;-63
2023/05/12 10:51:41;;;;;;;18.80;14.13;;;20.30;99.90;;;;;;6219244;23;20095;-63
2023/05/12 10:54:09;;;;;;;15.60;11.70;;;20.70;99.90;;;;;;6245242;23;20468;-62
2023/05/12 10:56:38;;;;;;;12.93;9.77;;;20.20;99.90;;;;;;6245822;23;20319;-63
2023/05/12 10:59:11;;;;;;;13.32;10.20;;;;;;;;;;6245994;23;20016;-63
2023/05/12 11:01:37;;;;;;;17.30;11.13;;;;;;;;;;6244066;23;20027;-63
2023/05/12 11:04:16;;;;;;;11.48;8.65;;;20.50;99.90;;;;;;6244471;23;20024;-63
2023/05/12 11:06:42;;;;;;;11.55;8.73;;;;;;;;;;6244515;23;20013;-63
2023/05/12 11:09:10;;;;;;;7.75;5.97;;;21.00;99.90;;;;;;6243409;23;20016;-63
2023/05/12 11:11:36;;;;;;;10.45;7.03;;;;;;;;;;6244173;23;20070;-62
2023/05/12 11:14:02;;;;;;;10.40;7.22;;;;;;;;;;6244286;23;20016;-62
2023/05/12 11:16:28;;;;;;;9.48;8.40;;;;;;;;;;6244071;23;20031;-62
2023/05/12 11:19:03;;;;;;;12.50;8.55;;;;;;;;;;6244424;23;20069;-62
2023/05/12 11:21:31;;;;;;;12.77;8.77;;;21.00;99.90;;;;;;6216897;23;20027;-63
2023/05/12 11:23:57;;;;;;;12.77;8.63;;;;;;;;;;6243643;23;20054;-63
2023/05/12 11:26:24;;;;;;;13.18;8.70;;;;;;;;;;6217367;23;20024;-63
2023/05/12 11:28:50;;;;;;;13.60;10.82;;;;;;;;;;6161621;22;1835164;-63
2023/05/12 11:31:41;;;;;;;11.43;8.32;;;;;;;;;;6237849;22;20256;-64
2023/05/12 11:34:08;;;;;;;10.25;8.80;;;;;;;;;;6185451;23;20064;-63
2023/05/12 11:36:38;;;;;;;13.25;11.13;;;;;;;;;;6158399;23;20036;-63
2023/05/12 11:39:05;;;;;;;12.45;8.88;;;;;;;;;;6184777;23;20024;-63
2023/05/12 11:41:32;;;;;;;12.70;8.68;;;;;;;;;;6134078;23;20100;-63
2023/05/12 11:43:58;;;;;;;17.20;12.23;;;;;;;;;;6159069;23;20075;-63
2023/05/12 11:46:28;;;;;;;13.40;9.82;;;;;;;;;;6158611;23;20021;-63
2023/05/12 11:48:57;;;;;;;16.45;9.35;;;;;;;;;;6185211;23;20056;-63
2023/05/12 11:51:24;;;;;;;16.58;13.50;;;;;;;;;;6184698;23;20093;-63
2023/05/12 11:53:50;;;;;;;21.02;14.48;;;;;;;;;;6184775;23;20021;-63
2023/05/12 11:56:23;;;;;;;14.30;12.20;;;;;;;;;;6184962;23;20021;-64
2023/05/12 11:58:53;;;;;;;13.85;11.75;;;;;;;;;;6185227;23;20020;-63
2023/05/12 12:01:19;;;;;;;12.07;10.35;;;;;;;;;;6184748;23;20071;-64
2023/05/12 12:03:47;;;;;;;14.90;10.45;;;;;;;;;;6185102;23;20017;-63
2023/05/12 12:06:13;;;;;;;11.25;9.18;;;;;;;;;;6184402;23;20025;-64
2023/05/12 12:08:49;;;;;;;11.23;9.20;;;;;;;;;;6184366;23;20442;-63
2023/05/12 12:11:18;;;;;;;11.80;9.65;;;21.80;99.90;;;;;;6184667;23;20025;-64
2023/05/12 12:13:51;;;;;;;15.15;9.50;;;22.20;99.90;;;;;;6155528;23;20021;-63
2023/05/12 12:16:17;;;;;;;15.73;10.88;;;;;;;;;;6182709;23;20017;-64
2023/05/12 12:18:43;;;;;;;15.45;9.90;;;;;;;;;;6183387;23;20029;-63
2023/05/12 12:21:10;;;;;;;14.77;8.75;;;;;;;;;;6183183;23;20079;-63
2023/05/12 12:23:36;;;;;;;12.85;9.80;;;;;;;;;;6156720;23;20025;-63
2023/05/12 12:26:02;;;;;;;12.90;9.88;;;;;;;;;;6184545;23;20021;-64
2023/05/12 12:28:28;;;;;;;12.48;9.98;;;;;;;;;;6183370;23;20457;-63
2023/05/12 12:30:54;;;;;;;13.63;9.63;;;;;;;;;;6184401;23;20025;-64
2023/05/12 12:33:20;;;;;;;10.55;8.00;;;;;;;;;;6183220;23;20373;-63
2023/05/12 12:35:46;;;;;;;12.32;8.20;;;;;;;;;;6183809;23;20053;-64
2023/05/12 12:38:13;;;;;;;8.73;7.38;;;;;;;;;;6157543;23;20024;-62
2023/05/12 12:40:39;;;;;;;8.85;7.32;;;;;;;;;;6183082;23;20453;-62
2023/05/12 12:43:05;;;;;;;10.57;8.05;;;;;;;;;;6184230;23;20017;-62
2023/05/12 12:45:31;;;;;;;10.55;8.50;;;;;;;;;;6183444;23;20020;-63
2023/05/12 12:47:57;;;;;;;12.55;9.50;;;;;;;;;;6183852;23;20032;-63
2023/05/12 12:50:23;;;;;;;13.05;9.93;;;;;;;;;;6183306;23;20021;-63
2023/05/12 12:52:49;;;;;;;12.48;8.25;;;;;;;;;;6157078;23;20028;-63
2023/05/12 12:55:16;;;;;;;11.05;5.97;;;;;;;;;;6157432;23;20639;-62
2023/05/12 12:57:42;;;;;;;12.52;6.07;;;;;;;;;;6182917;23;20096;-62
2023/05/12 13:00:08;;;;;;;8.13;6.80;;;;;;;;;;6157145;23;20063;-62
2023/05/12 13:02:34;;;;;;;7.70;4.35;;;;;;;;;;6180822;23;20021;-64
2023/05/12 13:05:05;;;;;;;3.95;3.17;;;;;;;;;;6131522;23;20021;-65
2023/05/12 13:07:31;;;;;;;5.05;3.55;;;;;;;;;;6133214;23;20088;-66
2023/05/12 13:09:58;;;;;;;5.82;4.63;;;;;;;;;;6184098;23;20092;-65
2023/05/12 13:12:24;;;;;;;8.35;4.72;;;;;;;;;;6183685;23;20334;-68
2023/05/12 13:14:50;;;;;;;8.63;4.72;;;;;;;;;;6183922;23;20452;-67
2023/05/12 13:17:16;;;;;;;7.97;4.82;;;;;;;;;;6183936;23;20028;-69
2023/05/12 13:19:42;;;;;;;5.85;4.28;;;;;;;;;;6157527;23;20021;-63
2023/05/12 13:22:09;;;;;;;5.90;4.65;;;;;;;;;;6183962;23;20017;-67
2023/05/12 13:24:35;;;;;;;7.35;4.95;;;;;;;;;;6157543;23;20465;-67
2023/05/12 13:27:06;;;;;;;6.82;5.00;;;;;;;;;;6184074;23;20071;-68
2023/05/12 13:29:32;;;;;;;8.18;4.80;;;;;;;;;;6132957;23;20021;-71
2023/05/12 13:31:58;;;;;;;6.05;3.70;;;;;;;;;;6157673;23;20399;-65
2023/05/12 13:34:24;;;;;;;5.10;2.63;;;;;;;;;;6156786;23;20501;-63
2023/05/12 13:36:50;;;;;;;4.57;2.45;;;;;;;;;;6157562;23;20017;-66
2023/05/12 13:39:16;;;;;;;3.88;2.47;;;;;;;;;;6182255;23;20071;-66
2023/05/12 13:41:42;;;;;;;5.78;3.00;;;;;;;;;;6183652;23;20032;-67
2023/05/12 13:44:09;;;;;;;3.40;2.55;;;;;;;;;;6182859;23;20021;-69
2023/05/12 13:46:35;;;;;;;4.47;2.90;;;;;;;;;;6183377;23;20021;-65
2023/05/12 13:49:01;;;;;;;5.18;3.00;;;;;;;;;;6157310;23;20021;-67
2023/05/12 13:51:27;;;;;;;6.25;2.72;;;;;;;;;;6183415;23;20013;-70
2023/05/12 13:53:53;;;;;;;3.85;2.78;;;;;;;;;;6132873;23;20021;-66
2023/05/12 13:56:20;;;;;;;5.57;2.40;;;;;;;;;;6156808;23;20060;-66
2023/05/12 13:58:46;;;;;;;5.65;2.75;;;;;;;;;;6185113;23;20096;-64
2023/05/12 14:01:12;;;;;;;4.00;2.50;;;;;;;;;;6185713;23;20025;-66
2023/05/12 14:03:39;;;;;;;3.05;2.00;;;;;;;;;;6183777;23;20082;-66
2023/05/12 14:06:05;;;;;;;6.05;2.20;;;;;;;;;;6158302;23;20441;-65
2023/05/12 14:08:31;;;;;;;4.65;2.47;;;;;;;;;;6184493;23;20028;-64
2023/05/12 14:10:57;;;;;;;5.10;2.38;;;;;;;;;;6184962;23;20016;-66
2023/05/12 14:13:24;;;;;;;4.22;2.10;;;;;;;;;;6184910;23;20021;-66
2023/05/12 14:15:51;;;;;;;3.42;2.35;;;23.40;99.90;;;;;;6159641;23;20057;-65